createdAt,value
2018-01-19T05:00:43.274Z,0
2018-01-19T05:01:08.758Z,0
2018-01-19T05:01:34.251Z,0
2018-01-19T05:01:59.749Z,0
2018-01-19T05:02:25.315Z,0
2018-01-19T05:02:50.743Z,0
2018-01-19T05:03:16.267Z,0
2018-01-19T05:04:35.145Z,0
2018-01-19T05:05:00.626Z,0
2018-01-19T05:05:26.101Z,0
2018-01-19T05:06:50.091Z,0
2018-01-19T05:07:15.557Z,0
2018-01-19T05:07:41.058Z,0
2018-01-19T05:08:06.545Z,0
2018-01-19T05:08:32.049Z,0
2018-01-19T05:09:35.649Z,0
2018-01-19T05:10:01.156Z,0
2018-01-19T05:11:09.812Z,0
2018-01-19T05:11:35.295Z,0
2018-01-19T05:12:00.771Z,0
2018-01-19T05:12:26.237Z,0
2018-01-19T05:12:51.718Z,0
2018-01-19T05:13:17.210Z,0
2018-01-19T05:14:30.988Z,0
2018-01-19T05:14:56.463Z,0
2018-01-19T05:15:21.967Z,0
2018-01-19T05:15:47.437Z,0
2018-01-19T05:16:12.911Z,0
2018-01-19T05:16:38.458Z,0
2018-01-19T05:17:03.921Z,0
2018-01-19T05:17:29.421Z,0
2018-01-19T05:17:54.927Z,0
2018-01-19T05:18:20.418Z,0
2018-01-19T05:18:45.927Z,0
2018-01-19T05:19:11.399Z,0
2018-01-19T05:19:36.861Z,0
2018-01-19T05:20:02.320Z,0
2018-01-19T05:20:27.859Z,0
2018-01-19T05:20:53.334Z,0
2018-01-19T05:21:18.830Z,0
2018-01-19T05:22:22.459Z,0
2018-01-19T05:22:47.941Z,0
2018-01-19T05:23:13.441Z,0
2018-01-19T05:23:38.922Z,0
2018-01-19T05:24:04.389Z,0
2018-01-19T05:25:13.100Z,0
2018-01-19T05:25:38.597Z,0
2018-01-19T05:26:04.122Z,0
2018-01-19T05:26:29.574Z,0
2018-01-19T05:26:55.033Z,0
2018-01-19T05:27:20.543Z,0
2018-01-19T05:27:46.016Z,0
2018-01-19T05:28:11.504Z,0
2018-01-19T05:28:37.032Z,0
2018-01-19T05:29:02.502Z,0
2018-01-19T05:29:28.002Z,0
2018-01-19T05:29:53.477Z,0
2018-01-19T05:30:18.954Z,0
2018-01-19T05:30:44.403Z,0
2018-01-19T05:31:09.897Z,0
2018-01-19T05:31:35.392Z,0
2018-01-19T05:32:00.886Z,0
2018-01-19T05:32:26.377Z,0
2018-01-19T05:33:35.104Z,0
2018-01-19T05:34:00.593Z,0
2018-01-19T05:34:26.090Z,0
2018-01-19T05:34:51.592Z,0
2018-01-19T05:35:17.068Z,0
2018-01-19T05:35:42.587Z,0
2018-01-19T05:36:08.044Z,0
2018-01-19T05:37:12.392Z,0
2018-01-19T05:37:37.903Z,0
2018-01-19T05:38:03.384Z,0
2018-01-19T05:38:28.835Z,0
2018-01-19T05:38:54.304Z,0
2018-01-19T05:39:19.774Z,0
2018-01-19T05:39:45.244Z,0
2018-01-19T05:40:10.743Z,0
2018-01-19T05:40:36.219Z,0
2018-01-19T05:41:01.704Z,0
2018-01-19T05:41:27.161Z,0
2018-01-19T05:41:52.662Z,0
2018-01-19T05:42:18.155Z,0
2018-01-19T05:42:43.669Z,0
2018-01-19T05:43:09.134Z,0
2018-01-19T05:43:34.610Z,0
2018-01-19T05:44:00.057Z,0
2018-01-19T05:44:25.578Z,0
2018-01-19T05:44:50.971Z,0
2018-01-19T05:45:16.443Z,0
2018-01-19T05:45:41.908Z,0
2018-01-19T05:47:00.814Z,0
2018-01-19T05:47:26.283Z,0
2018-01-19T05:47:51.781Z,0
2018-01-19T05:48:17.238Z,0
2018-01-19T05:48:42.746Z,0
2018-01-19T05:49:08.277Z,0
2018-01-19T05:49:33.753Z,0
2018-01-19T05:49:59.276Z,0
2018-01-19T05:50:24.737Z,0
2018-01-19T05:50:50.309Z,0
2018-01-19T05:51:15.771Z,0
2018-01-19T05:51:41.259Z,0
2018-01-19T05:52:06.732Z,0
2018-01-19T05:52:32.200Z,0
2018-01-19T05:52:57.699Z,0
2018-01-19T05:53:23.174Z,0
2018-01-19T05:53:48.642Z,0
2018-01-19T05:54:14.169Z,0
2018-01-19T05:54:39.689Z,0
2018-01-19T05:55:05.168Z,0
2018-01-19T05:55:30.649Z,0
2018-01-19T05:55:56.132Z,0
2018-01-19T05:56:21.597Z,0
2018-01-19T05:56:47.104Z,0
2018-01-19T05:57:12.599Z,0
2018-01-19T05:57:38.067Z,0
2018-01-19T05:58:51.851Z,0
2018-01-19T05:59:17.357Z,0
2018-01-19T05:59:42.849Z,0
2018-01-19T06:00:08.350Z,0
2018-01-19T06:00:33.842Z,0
2018-01-19T06:00:59.331Z,0
2018-01-19T06:01:24.840Z,0
2018-01-19T06:01:50.415Z,0
2018-01-19T06:02:15.864Z,0
2018-01-19T06:03:39.829Z,0
2018-01-19T06:04:05.324Z,0
2018-01-19T06:04:30.855Z,0
2018-01-19T06:04:56.309Z,0
2018-01-19T06:05:21.859Z,0
2018-01-19T06:05:47.308Z,0
2018-01-19T06:06:12.844Z,0
2018-01-19T06:06:38.322Z,0
2018-01-19T06:07:03.798Z,0
2018-01-19T06:07:29.285Z,0
2018-01-19T06:07:54.757Z,0
2018-01-19T06:08:20.281Z,0
2018-01-19T06:08:45.787Z,0
2018-01-19T06:09:11.234Z,0
2018-01-19T06:09:36.711Z,0
2018-01-19T06:10:02.172Z,0
2018-01-19T06:10:27.673Z,0
2018-01-19T06:10:53.131Z,0
2018-01-19T06:11:18.626Z,0
2018-01-19T06:11:44.126Z,0
2018-01-19T06:12:09.625Z,0
2018-01-19T06:12:35.102Z,0
2018-01-19T06:13:00.575Z,0
2018-01-19T06:13:26.062Z,0
2018-01-19T06:13:51.557Z,0
2018-01-19T06:14:17.069Z,0
2018-01-19T06:15:30.888Z,0
2018-01-19T06:15:56.379Z,0
2018-01-19T06:16:21.866Z,0
2018-01-19T06:17:25.473Z,0
2018-01-19T06:17:50.975Z,0
2018-01-19T06:18:16.465Z,0
2018-01-19T06:18:41.947Z,0
2018-01-19T06:19:07.440Z,0
2018-01-19T06:19:32.984Z,0
2018-01-19T06:19:58.470Z,0
2018-01-19T06:20:24.149Z,0
2018-01-19T06:20:49.587Z,0
2018-01-19T06:21:15.109Z,0
2018-01-19T06:21:40.566Z,0
2018-01-19T06:22:06.067Z,0
2018-01-19T06:22:31.557Z,0
2018-01-19T06:22:57.067Z,0
2018-01-19T06:23:22.577Z,0
2018-01-19T06:23:48.083Z,0
2018-01-19T06:24:13.611Z,0
2018-01-19T06:24:39.109Z,0
2018-01-19T06:25:04.622Z,0
2018-01-19T06:25:30.077Z,0
2018-01-19T06:25:55.678Z,0
2018-01-19T06:26:21.214Z,0
2018-01-19T06:26:46.710Z,0
2018-01-19T06:27:12.180Z,0
2018-01-19T06:28:36.222Z,0
2018-01-19T06:29:01.726Z,0
2018-01-19T06:29:27.227Z,0
2018-01-19T06:29:52.704Z,0
2018-01-19T06:30:18.273Z,0
2018-01-19T06:30:43.790Z,0
2018-01-19T06:31:09.293Z,0
2018-01-19T06:31:34.766Z,0
2018-01-19T06:32:00.281Z,0
2018-01-19T06:32:25.776Z,0
2018-01-19T06:32:51.264Z,0
2018-01-19T06:33:16.780Z,0
2018-01-19T06:33:42.276Z,0
2018-01-19T06:34:07.773Z,0
2018-01-19T06:35:21.581Z,0
2018-01-19T06:35:47.074Z,0
2018-01-19T06:36:12.554Z,0
2018-01-19T06:37:31.448Z,0
2018-01-19T06:37:56.943Z,0
2018-01-19T06:38:22.393Z,0
2018-01-19T06:38:47.850Z,0
2018-01-19T06:39:13.426Z,0
2018-01-19T06:39:38.900Z,0
2018-01-19T06:40:04.377Z,0
2018-01-19T06:40:29.864Z,0
2018-01-19T06:40:55.267Z,0
2018-01-19T06:41:20.715Z,0
2018-01-19T06:41:46.211Z,0
2018-01-19T06:42:11.667Z,0
2018-01-19T06:42:37.204Z,0
2018-01-19T06:43:02.632Z,0
2018-01-19T06:43:28.127Z,0
2018-01-19T06:43:53.565Z,0
2018-01-19T06:44:19.020Z,0
2018-01-19T06:44:44.488Z,0
2018-01-19T06:45:09.952Z,0
2018-01-19T06:45:35.417Z,0
2018-01-19T06:46:00.881Z,0
2018-01-19T06:46:26.336Z,0
2018-01-19T06:46:51.804Z,0
2018-01-19T06:47:17.290Z,0
2018-01-19T06:47:42.728Z,0
2018-01-19T06:48:08.215Z,0
2018-01-19T06:48:33.664Z,0
2018-01-19T06:48:59.092Z,0
2018-01-19T06:49:24.593Z,0
2018-01-19T06:49:50.044Z,0
2018-01-19T06:50:15.502Z,0
2018-01-19T06:50:40.943Z,0
2018-01-19T06:51:06.403Z,0
2018-01-19T06:51:31.874Z,0
2018-01-19T06:51:57.372Z,0
2018-01-19T06:52:22.874Z,0
2018-01-19T06:52:48.362Z,0
2018-01-19T06:53:57.095Z,0
2018-01-19T06:54:22.585Z,0
2018-01-19T06:54:48.078Z,0
2018-01-19T06:55:13.557Z,4
2018-01-19T06:55:39.012Z,4
2018-01-19T06:56:04.463Z,4
2018-01-19T06:56:29.943Z,4
2018-01-19T06:56:55.388Z,4
2018-01-19T06:57:20.854Z,0
2018-01-19T06:57:46.373Z,0
2018-01-19T06:58:11.820Z,4
2018-01-19T06:58:37.296Z,4
2018-01-19T06:59:02.705Z,4
2018-01-19T06:59:28.212Z,4
2018-01-19T06:59:53.659Z,4
2018-01-19T07:00:19.208Z,4
2018-01-19T07:00:44.659Z,4
2018-01-19T07:01:10.124Z,4
2018-01-19T07:01:35.533Z,4
2018-01-19T07:02:00.993Z,4
2018-01-19T07:02:26.532Z,4
2018-01-19T07:02:51.971Z,4
2018-01-19T07:03:17.432Z,4
2018-01-19T07:03:42.901Z,4
2018-01-19T07:04:08.384Z,4
2018-01-19T07:04:33.815Z,4
2018-01-19T07:05:37.420Z,8
2018-01-19T07:06:02.915Z,12
2018-01-19T07:06:28.382Z,8
2018-01-19T07:06:53.891Z,8
2018-01-19T07:07:19.327Z,8
2018-01-19T07:07:44.801Z,8
2018-01-19T07:08:10.295Z,8
2018-01-19T07:08:35.726Z,12
2018-01-19T07:09:01.198Z,12
2018-01-19T07:09:26.632Z,16
2018-01-19T07:09:52.094Z,12
2018-01-19T07:10:17.584Z,16
2018-01-19T07:10:42.990Z,20
2018-01-19T07:11:08.548Z,16
2018-01-19T07:11:33.960Z,16
2018-01-19T07:11:59.446Z,20
2018-01-19T07:12:25.051Z,20
2018-01-19T07:12:50.443Z,20
2018-01-19T07:13:15.887Z,20
2018-01-19T07:13:41.308Z,24
2018-01-19T07:14:06.803Z,24
2018-01-19T07:14:32.238Z,28
2018-01-19T07:14:57.718Z,28
2018-01-19T07:15:23.156Z,32
2018-01-19T07:15:48.622Z,32
2018-01-19T07:16:14.102Z,36
2018-01-19T07:16:39.617Z,40
2018-01-19T07:18:03.606Z,44
2018-01-19T07:18:29.054Z,48
2018-01-19T07:18:54.593Z,52
2018-01-19T07:19:20.044Z,56
2018-01-19T07:19:45.484Z,56
2018-01-19T07:20:11.001Z,52
2018-01-19T07:20:36.502Z,56
2018-01-19T07:21:01.993Z,52
2018-01-19T07:21:27.467Z,56
2018-01-19T07:21:52.880Z,60
2018-01-19T07:22:18.372Z,52
2018-01-19T07:22:43.817Z,56
2018-01-19T07:23:09.254Z,56
2018-01-19T07:23:34.767Z,60
2018-01-19T07:24:00.280Z,64
2018-01-19T07:24:25.725Z,68
2018-01-19T07:24:51.188Z,64
2018-01-19T07:25:16.699Z,68
2018-01-19T07:25:42.192Z,72
2018-01-19T07:26:07.591Z,76
2018-01-19T07:26:33.065Z,76
2018-01-19T07:26:58.513Z,84
2018-01-19T07:27:23.976Z,88
2018-01-19T07:27:49.452Z,100
2018-01-19T07:28:14.956Z,100
2018-01-19T07:28:40.361Z,104
2018-01-19T07:29:05.850Z,112
2018-01-19T07:29:31.327Z,120
2018-01-19T07:29:56.861Z,120
2018-01-19T07:30:22.285Z,124
2018-01-19T07:30:47.756Z,124
2018-01-19T07:31:13.231Z,128
2018-01-19T07:31:38.718Z,124
2018-01-19T07:32:04.144Z,132
2018-01-19T07:32:29.598Z,140
2018-01-19T07:32:55.073Z,144
2018-01-19T07:33:20.587Z,152
2018-01-19T07:33:46.060Z,156
2018-01-19T07:34:11.580Z,164
2018-01-19T07:34:36.994Z,168
2018-01-19T07:35:02.453Z,168
2018-01-19T07:35:27.938Z,180
2018-01-19T07:35:53.395Z,184
2018-01-19T07:36:18.898Z,188
2018-01-19T07:36:44.334Z,192
2018-01-19T07:37:09.800Z,204
2018-01-19T07:37:35.253Z,208
2018-01-19T07:38:00.732Z,216
2018-01-19T07:38:26.177Z,228
2018-01-19T07:38:51.623Z,252
2018-01-19T07:39:17.117Z,260
2018-01-19T07:39:42.580Z,264
2018-01-19T07:40:08.045Z,264
2018-01-19T07:40:33.519Z,284
2018-01-19T07:40:58.993Z,284
2018-01-19T07:41:24.462Z,284
2018-01-19T07:41:49.954Z,272
2018-01-19T07:42:15.412Z,272
2018-01-19T07:42:40.840Z,284
2018-01-19T07:43:06.302Z,316
2018-01-19T07:43:31.787Z,332
2018-01-19T07:43:57.327Z,320
2018-01-19T07:44:22.769Z,324
2018-01-19T07:44:48.249Z,344
2018-01-19T07:45:13.761Z,352
2018-01-19T07:45:39.201Z,348
2018-01-19T07:46:04.689Z,324
2018-01-19T07:46:30.174Z,312
2018-01-19T07:46:55.659Z,300
2018-01-19T07:47:21.114Z,276
2018-01-19T07:47:46.630Z,264
2018-01-19T07:48:12.109Z,280
2018-01-19T07:48:37.551Z,292
2018-01-19T07:49:03.027Z,292
2018-01-19T07:49:28.501Z,300
2018-01-19T07:49:53.998Z,312
2018-01-19T07:50:19.437Z,308
2018-01-19T07:50:45.099Z,300
2018-01-19T07:51:10.593Z,312
2018-01-19T07:51:36.137Z,328
2018-01-19T07:53:00.185Z,344
2018-01-19T07:53:25.651Z,356
2018-01-19T07:53:51.149Z,364
2018-01-19T07:54:16.563Z,332
2018-01-19T07:54:42.053Z,332
2018-01-19T07:55:07.547Z,332
2018-01-19T07:55:33.032Z,316
2018-01-19T07:55:58.500Z,300
2018-01-19T07:56:24.036Z,272
2018-01-19T07:56:49.453Z,244
2018-01-19T07:57:14.980Z,212
2018-01-19T07:58:28.734Z,196
2018-01-19T07:58:54.257Z,204
2018-01-19T07:59:19.690Z,200
2018-01-19T07:59:45.222Z,204
2018-01-19T08:00:10.686Z,196
2018-01-19T08:00:36.118Z,188
2018-01-19T08:01:01.597Z,184
2018-01-19T08:01:27.079Z,188
2018-01-19T08:01:52.505Z,196
2018-01-19T08:02:17.975Z,212
2018-01-19T08:02:43.453Z,216
2018-01-19T08:03:08.939Z,224
2018-01-19T08:03:34.389Z,240
2018-01-19T08:03:59.927Z,240
2018-01-19T08:04:25.385Z,252
2018-01-19T08:04:50.884Z,268
2018-01-19T08:05:16.362Z,292
2018-01-19T08:05:41.779Z,320
2018-01-19T08:06:07.203Z,332
2018-01-19T08:06:32.683Z,316
2018-01-19T08:06:58.105Z,328
2018-01-19T08:07:23.563Z,336
2018-01-19T08:07:49.105Z,332
2018-01-19T08:08:14.553Z,320
2018-01-19T08:08:40.052Z,300
2018-01-19T08:09:05.507Z,300
2018-01-19T08:09:30.960Z,300
2018-01-19T08:09:56.444Z,296
2018-01-19T08:10:21.922Z,268
2018-01-19T08:10:47.351Z,288
2018-01-19T08:11:12.815Z,308
2018-01-19T08:11:38.322Z,352
2018-01-19T08:12:03.823Z,364
2018-01-19T08:12:29.295Z,344
2018-01-19T08:12:54.836Z,328
2018-01-19T08:14:18.807Z,276
2018-01-19T08:14:44.310Z,300
2018-01-19T08:15:09.785Z,320
2018-01-19T08:15:35.228Z,344
2018-01-19T08:16:00.713Z,384
2018-01-19T08:17:09.410Z,436
2018-01-19T08:17:34.896Z,428
2018-01-19T08:18:00.379Z,436
2018-01-19T08:18:25.867Z,436
2018-01-19T08:18:51.305Z,440
2018-01-19T08:19:16.782Z,456
2018-01-19T08:19:42.264Z,424
2018-01-19T08:20:07.689Z,380
2018-01-19T08:20:33.183Z,376
2018-01-19T08:20:58.616Z,392
2018-01-19T08:21:24.062Z,400
2018-01-19T08:21:49.589Z,392
2018-01-19T08:22:15.043Z,404
2018-01-19T08:22:40.542Z,432
2018-01-19T08:23:05.959Z,420
2018-01-19T08:23:31.425Z,424
2018-01-19T08:23:56.879Z,440
2018-01-19T08:24:22.355Z,444
2018-01-19T08:24:47.811Z,472
2018-01-19T08:25:13.297Z,484
2018-01-19T08:26:21.966Z,524
2018-01-19T08:26:47.461Z,500
2018-01-19T08:27:12.900Z,508
2018-01-19T08:27:38.426Z,548
2018-01-19T08:28:03.864Z,584
2018-01-19T08:29:17.664Z,624
2018-01-19T08:29:43.141Z,624
2018-01-19T08:30:08.621Z,652
2018-01-19T08:30:34.061Z,620
2018-01-19T08:31:37.676Z,620
2018-01-19T08:32:03.160Z,624
2018-01-19T08:32:28.622Z,572
2018-01-19T08:32:54.128Z,600
2018-01-19T08:33:19.576Z,628
2018-01-19T08:33:45.058Z,676
2018-01-19T08:34:10.482Z,720
2018-01-19T08:34:35.944Z,716
2018-01-19T08:35:01.408Z,660
2018-01-19T08:35:26.868Z,632
2018-01-19T08:35:52.336Z,624
2018-01-19T08:36:17.782Z,680
2018-01-19T08:36:43.241Z,728
2018-01-19T08:37:08.704Z,752
2018-01-19T08:37:34.197Z,768
2018-01-19T08:37:59.659Z,724
2018-01-19T08:38:25.133Z,736
2018-01-19T08:38:50.580Z,748
2018-01-19T08:39:16.045Z,780
2018-01-19T08:39:41.513Z,860
2018-01-19T08:40:06.958Z,868
2018-01-19T08:40:32.468Z,872
2018-01-19T08:40:57.956Z,888
2018-01-19T08:41:23.403Z,864
2018-01-19T08:41:48.857Z,888
2018-01-19T08:42:14.351Z,896
2018-01-19T08:42:40.088Z,916
2018-01-19T08:43:05.628Z,868
2018-01-19T08:43:31.093Z,820
2018-01-19T08:43:56.681Z,864
2018-01-19T08:44:22.368Z,840
2018-01-19T08:44:47.832Z,800
2018-01-19T08:45:13.317Z,820
2018-01-19T08:45:38.753Z,892
2018-01-19T08:46:04.255Z,888
2018-01-19T08:46:29.696Z,900
2018-01-19T08:46:55.189Z,964
2018-01-19T08:47:20.646Z,984
2018-01-19T08:47:46.133Z,944
2018-01-19T08:48:11.627Z,984
2018-01-19T08:48:37.080Z,1032
2018-01-19T08:49:02.590Z,964
2018-01-19T08:49:28.024Z,900
2018-01-19T08:49:53.489Z,916
2018-01-19T08:50:18.932Z,900
2018-01-19T08:50:44.431Z,916
2018-01-19T08:51:09.896Z,988
2018-01-19T08:51:35.337Z,1060
2018-01-19T08:52:00.825Z,1128
2018-01-19T08:53:04.824Z,1216
2018-01-19T08:53:30.303Z,1188
2018-01-19T08:53:55.766Z,1156
2018-01-19T08:54:21.457Z,1136
2018-01-19T08:54:46.922Z,1112
2018-01-19T08:55:12.386Z,1124
2018-01-19T08:55:37.928Z,1144
2018-01-19T08:56:03.540Z,1200
2018-01-19T08:56:29.046Z,1280
2018-01-19T08:56:54.565Z,1380
2018-01-19T08:57:20.032Z,1456
2018-01-19T08:57:45.754Z,1500
2018-01-19T08:58:11.219Z,1508
2018-01-19T08:58:36.715Z,1484
2018-01-19T08:59:02.305Z,1484
2018-01-19T08:59:27.755Z,1496
2018-01-19T08:59:53.294Z,1516
2018-01-19T09:00:18.715Z,1540
2018-01-19T09:00:44.174Z,1568
2018-01-19T09:01:09.689Z,1596
2018-01-19T09:01:35.135Z,1616
2018-01-19T09:02:00.603Z,1596
2018-01-19T09:02:26.365Z,1568
2018-01-19T09:02:51.997Z,1568
2018-01-19T09:03:17.520Z,1600
2018-01-19T09:03:43.054Z,1680
2018-01-19T09:04:08.445Z,1740
2018-01-19T09:04:33.937Z,1844
2018-01-19T09:04:59.420Z,1992
2018-01-19T09:05:24.888Z,2184
2018-01-19T09:05:50.358Z,2316
2018-01-19T09:06:15.889Z,2340
2018-01-19T09:06:41.312Z,2320
2018-01-19T09:07:06.791Z,2372
2018-01-19T09:07:32.381Z,2340
2018-01-19T09:07:57.861Z,2396
2018-01-19T09:08:23.302Z,2376
2018-01-19T09:08:48.759Z,2448
2018-01-19T09:09:14.210Z,2540
2018-01-19T09:09:39.663Z,2548
2018-01-19T09:10:58.566Z,2316
2018-01-19T09:11:24.037Z,2180
2018-01-19T09:11:49.480Z,2112
2018-01-19T09:13:08.424Z,2188
2018-01-19T09:13:33.928Z,2232
2018-01-19T09:13:59.436Z,2348
2018-01-19T09:14:24.961Z,2428
2018-01-19T09:14:50.480Z,2480
2018-01-19T09:15:15.895Z,2456
2018-01-19T09:15:41.342Z,2472
2018-01-19T09:16:06.955Z,2468
2018-01-19T09:16:32.320Z,2460
2018-01-19T09:16:57.794Z,2528
2018-01-19T09:17:23.236Z,2692
2018-01-19T09:17:48.690Z,2796
2018-01-19T09:18:14.199Z,2868
2018-01-19T09:18:39.684Z,2860
2018-01-19T09:19:05.125Z,2876
2018-01-19T09:19:30.694Z,2860
2018-01-19T09:19:56.133Z,2820
2018-01-19T09:20:21.627Z,2760
2018-01-19T09:21:40.480Z,2668
2018-01-19T09:22:05.966Z,2652
2018-01-19T09:22:31.497Z,2604
2018-01-19T09:22:56.964Z,2528
2018-01-19T09:23:22.427Z,2488
2018-01-19T09:23:47.919Z,2496
2018-01-19T09:24:13.374Z,2460
2018-01-19T09:24:38.861Z,2420
2018-01-19T09:25:04.636Z,2384
2018-01-19T09:25:30.176Z,2428
2018-01-19T09:25:55.625Z,2500
2018-01-19T09:26:21.064Z,2548
2018-01-19T09:26:46.562Z,2636
2018-01-19T09:27:12.046Z,2692
2018-01-19T09:27:37.539Z,2732
2018-01-19T09:28:03.007Z,2800
2018-01-19T09:28:28.449Z,2740
2018-01-19T09:28:53.931Z,2616
2018-01-19T09:29:19.457Z,2464
2018-01-19T09:29:44.902Z,2428
2018-01-19T09:30:10.418Z,2380
2018-01-19T09:30:35.805Z,2212
2018-01-19T09:31:01.291Z,2144
2018-01-19T09:31:26.791Z,2208
2018-01-19T09:31:52.262Z,2284
2018-01-19T09:32:17.717Z,2352
2018-01-19T09:32:43.196Z,2352
2018-01-19T09:33:08.638Z,2484
2018-01-19T09:33:34.085Z,2340
2018-01-19T09:33:59.591Z,2396
2018-01-19T09:34:25.022Z,2496
2018-01-19T09:34:50.448Z,2492
2018-01-19T09:35:15.873Z,2548
2018-01-19T09:35:41.354Z,2600
2018-01-19T09:36:06.789Z,2548
2018-01-19T09:36:32.258Z,2500
2018-01-19T09:36:57.769Z,2432
2018-01-19T09:37:23.240Z,2356
2018-01-19T09:37:48.702Z,2504
2018-01-19T09:38:14.162Z,2520
2018-01-19T09:38:39.600Z,2692
2018-01-19T09:39:05.104Z,2632
2018-01-19T09:39:30.610Z,2628
2018-01-19T09:39:56.028Z,2668
2018-01-19T09:40:21.498Z,2680
2018-01-19T09:40:46.948Z,2624
2018-01-19T09:41:12.449Z,2616
2018-01-19T09:41:37.900Z,2464
2018-01-19T09:42:03.369Z,2676
2018-01-19T09:42:28.828Z,3108
2018-01-19T09:42:54.333Z,3304
2018-01-19T09:43:19.816Z,3200
2018-01-19T09:43:45.248Z,3000
2018-01-19T09:44:10.708Z,3252
2018-01-19T09:44:36.150Z,3408
2018-01-19T09:45:01.610Z,3572
2018-01-19T09:46:15.393Z,3492
2018-01-19T09:46:40.849Z,3372
2018-01-19T09:47:06.367Z,3296
2018-01-19T09:47:31.816Z,3348
2018-01-19T09:47:57.282Z,3404
2018-01-19T09:48:22.762Z,3288
2018-01-19T09:48:48.230Z,3308
2018-01-19T09:49:13.644Z,3368
2018-01-19T09:49:39.114Z,3348
2018-01-19T09:50:04.558Z,3220
2018-01-19T09:50:30.094Z,3328
2018-01-19T09:50:55.494Z,3372
2018-01-19T09:51:20.946Z,3548
2018-01-19T09:51:46.394Z,3460
2018-01-19T09:52:11.894Z,3332
2018-01-19T09:52:37.324Z,3276
2018-01-19T09:53:02.823Z,3204
2018-01-19T09:53:28.295Z,3200
2018-01-19T09:53:53.767Z,3044
2018-01-19T09:54:19.242Z,2996
2018-01-19T09:54:44.673Z,3052
2018-01-19T09:55:10.149Z,3068
2018-01-19T09:55:35.835Z,3112
2018-01-19T09:56:01.051Z,3028
2018-01-19T09:56:26.520Z,2980
2018-01-19T09:56:52.000Z,2552
2018-01-19T09:57:17.458Z,2048
2018-01-19T09:57:42.941Z,1996
2018-01-19T09:58:08.387Z,2168
2018-01-19T09:58:33.844Z,2276
2018-01-19T09:58:59.331Z,2492
2018-01-19T09:59:24.778Z,2712
2018-01-19T09:59:50.259Z,3060
2018-01-19T10:00:15.864Z,2856
2018-01-19T10:00:41.298Z,2852
2018-01-19T10:01:06.752Z,2960
2018-01-19T10:01:32.264Z,3072
2018-01-19T10:01:57.685Z,3092
2018-01-19T10:02:23.151Z,3128
2018-01-19T10:02:48.570Z,3496
2018-01-19T10:03:14.103Z,3760
2018-01-19T10:03:39.574Z,3856
2018-01-19T10:04:05.073Z,3800
2018-01-19T10:04:30.504Z,3668
2018-01-19T10:05:45.277Z,3396
2018-01-19T10:06:10.751Z,3356
2018-01-19T10:06:36.190Z,3372
2018-01-19T10:07:01.669Z,3272
2018-01-19T10:08:05.329Z,3140
2018-01-19T10:08:30.775Z,3244
2018-01-19T10:08:56.211Z,3288
2018-01-19T10:09:21.687Z,3396
2018-01-19T10:09:47.145Z,3284
2018-01-19T10:10:12.568Z,3160
2018-01-19T10:10:38.093Z,3176
2018-01-19T10:11:03.607Z,3104
2018-01-19T10:11:29.057Z,2952
2018-01-19T10:11:54.537Z,2956
2018-01-19T10:12:19.978Z,2988
2018-01-19T10:12:45.450Z,2912
2018-01-19T10:13:10.904Z,2932
2018-01-19T10:13:36.615Z,2820
2018-01-19T10:14:02.004Z,2668
2018-01-19T10:14:27.572Z,2756
2018-01-19T10:14:53.047Z,2732
2018-01-19T10:15:18.523Z,2548
2018-01-19T10:15:44.040Z,2536
2018-01-19T10:16:09.523Z,2588
2018-01-19T10:16:35.019Z,2728
2018-01-19T10:17:00.479Z,2812
2018-01-19T10:17:25.920Z,3040
2018-01-19T10:17:51.424Z,2992
2018-01-19T10:18:16.896Z,3128
2018-01-19T10:18:42.356Z,3068
2018-01-19T10:19:07.866Z,3044
2018-01-19T10:19:33.303Z,2956
2018-01-19T10:19:58.736Z,2728
2018-01-19T10:20:24.195Z,2636
2018-01-19T10:20:49.651Z,2816
2018-01-19T10:21:15.100Z,2536
2018-01-19T10:21:40.598Z,2316
2018-01-19T10:22:06.108Z,2132
2018-01-19T10:22:31.551Z,2120
2018-01-19T10:22:57.033Z,2012
2018-01-19T10:23:22.546Z,2028
2018-01-19T10:23:48.025Z,2296
2018-01-19T10:24:13.569Z,2772
2018-01-19T10:24:39.101Z,2672
2018-01-19T10:25:04.562Z,2512
2018-01-19T10:25:30.049Z,2384
2018-01-19T10:25:55.546Z,2140
2018-01-19T10:26:21.114Z,2076
2018-01-19T10:26:46.552Z,2204
2018-01-19T10:27:12.203Z,2140
2018-01-19T10:27:37.717Z,2228
2018-01-19T10:28:03.214Z,2188
2018-01-19T10:28:28.724Z,2424
2018-01-19T10:28:54.245Z,2508
2018-01-19T10:29:19.660Z,2664
2018-01-19T10:29:45.124Z,2804
2018-01-19T10:30:10.620Z,2864
2018-01-19T10:30:36.061Z,2920
2018-01-19T10:31:01.596Z,2996
2018-01-19T10:31:27.126Z,3132
2018-01-19T10:31:52.592Z,3092
2018-01-19T10:32:18.096Z,2920
2018-01-19T10:32:43.544Z,3004
2018-01-19T10:33:09.055Z,3464
2018-01-19T10:33:34.528Z,4004
2018-01-19T10:34:00.222Z,3456
2018-01-19T10:34:25.729Z,3244
2018-01-19T10:34:51.174Z,3540
2018-01-19T10:35:16.744Z,3820
2018-01-19T10:35:42.183Z,4172
2018-01-19T10:36:07.726Z,4592
2018-01-19T10:36:33.204Z,5996
2018-01-19T10:36:58.647Z,5576
2018-01-19T10:38:22.734Z,4124
2018-01-19T10:38:48.253Z,4092
2018-01-19T10:39:13.665Z,4636
2018-01-19T10:39:39.186Z,4536
2018-01-19T10:40:04.751Z,3740
2018-01-19T10:40:30.222Z,3912
2018-01-19T10:40:55.825Z,4076
2018-01-19T10:41:21.324Z,4188
2018-01-19T10:41:46.780Z,3896
2018-01-19T10:42:12.331Z,3232
2018-01-19T10:42:37.919Z,2756
2018-01-19T10:43:03.454Z,2840
2018-01-19T10:43:28.849Z,2896
2018-01-19T10:43:54.346Z,2676
2018-01-19T10:44:19.859Z,2576
2018-01-19T10:44:45.400Z,2780
2018-01-19T10:45:10.869Z,2796
2018-01-19T10:45:36.432Z,3020
2018-01-19T10:46:01.928Z,2964
2018-01-19T10:46:27.465Z,2688
2018-01-19T10:47:31.217Z,2944
2018-01-19T10:47:56.731Z,4052
2018-01-19T10:48:22.195Z,5044
2018-01-19T10:48:47.677Z,5440
2018-01-19T10:49:13.141Z,5056
2018-01-19T10:49:38.659Z,4552
2018-01-19T10:50:04.126Z,4828
2018-01-19T10:50:29.644Z,4692
2018-01-19T10:50:55.129Z,4300
2018-01-19T10:51:20.607Z,3644
2018-01-19T10:51:46.120Z,3116
2018-01-19T10:52:11.616Z,2932
2018-01-19T10:52:37.078Z,2888
2018-01-19T10:53:02.742Z,3172
2018-01-19T10:53:28.221Z,2856
2018-01-19T10:53:53.716Z,2424
2018-01-19T10:54:19.240Z,2452
2018-01-19T10:54:44.735Z,2516
2018-01-19T10:55:10.199Z,2592
2018-01-19T10:55:35.662Z,2248
2018-01-19T10:56:01.173Z,2128
2018-01-19T10:56:26.617Z,2496
2018-01-19T10:56:52.160Z,3116
2018-01-19T10:57:17.631Z,3160
2018-01-19T10:57:43.146Z,2580
2018-01-19T10:58:08.603Z,2204
2018-01-19T10:58:34.088Z,2048
2018-01-19T10:58:59.585Z,1992
2018-01-19T10:59:25.074Z,2104
2018-01-19T10:59:50.543Z,2184
2018-01-19T11:00:16.051Z,2264
2018-01-19T11:00:41.553Z,2296
2018-01-19T11:01:07.076Z,2408
2018-01-19T11:01:32.568Z,2500
2018-01-19T11:01:58.036Z,2968
2018-01-19T11:02:23.562Z,2764
2018-01-19T11:02:49.058Z,2568
2018-01-19T11:03:14.532Z,2396
2018-01-19T11:03:40.023Z,2284
2018-01-19T11:04:05.517Z,2232
2018-01-19T11:04:31.017Z,2216
2018-01-19T11:04:56.510Z,2264
2018-01-19T11:05:21.966Z,2260
2018-01-19T11:05:47.454Z,2192
2018-01-19T11:06:12.951Z,2196
2018-01-19T11:06:38.440Z,2176
2018-01-19T11:07:03.933Z,2180
2018-01-19T11:07:29.405Z,2144
2018-01-19T11:07:54.914Z,2060
2018-01-19T11:08:20.392Z,2008
2018-01-19T11:08:45.853Z,2032
2018-01-19T11:09:11.397Z,2128
2018-01-19T11:09:36.852Z,2168
2018-01-19T11:11:00.941Z,2752
2018-01-19T11:11:26.429Z,2956
2018-01-19T11:11:51.912Z,3024
2018-01-19T11:12:17.443Z,3344
2018-01-19T11:13:31.353Z,4664
2018-01-19T11:13:56.786Z,4080
2018-01-19T11:14:22.282Z,3700
2018-01-19T11:14:47.751Z,3764
2018-01-19T11:15:13.214Z,3992
2018-01-19T11:15:38.720Z,3772
2018-01-19T11:16:04.186Z,3364
2018-01-19T11:16:29.676Z,3416
2018-01-19T11:17:33.283Z,4124
2018-01-19T11:17:58.770Z,4104
2018-01-19T11:18:24.276Z,3828
2018-01-19T11:18:49.757Z,4000
2018-01-19T11:19:15.269Z,3256
2018-01-19T11:19:40.778Z,2964
2018-01-19T11:20:06.270Z,3156
2018-01-19T11:20:31.741Z,3496
2018-01-19T11:20:57.236Z,4004
2018-01-19T11:22:05.922Z,4280
2018-01-19T11:22:31.405Z,3744
2018-01-19T11:22:56.955Z,3296
2018-01-19T11:23:22.461Z,3304
2018-01-19T11:23:48.004Z,3468
2018-01-19T11:24:13.510Z,3648
2018-01-19T11:24:38.947Z,3844
2018-01-19T11:25:04.465Z,3540
2018-01-19T11:25:29.953Z,3268
2018-01-19T11:25:55.459Z,2896
2018-01-19T11:26:20.997Z,2512
2018-01-19T11:26:46.504Z,2196